Time;durP1;ratioP1;P1;durP2;ratioP2;P2;SDS_P1;SDS_P2;PMS_P1;PMS_P2;Temp;Humidity;BMP_temperature;BMP_pressure;BME280_temperature;BME280_humidity;BME280_pressure;Samples;Min_cycle;Max_cycle;Signal;HPM_P1;HPM_P2
2021/12/09 00:01:03;;;;;;;19.64;16.23;;;;;;;9.19;68.10;100296.28;463342;111;922635;-74
2021/12/09 00:02:07;;;;;;;19.56;15.91;;;;;;;9.21;68.06;100296.88;464343;112;922539;-74
2021/12/09 00:03:12;;;;;;;18.34;15.55;;;;;;;9.23;68.00;100298.55;464030;111;922630;-75
2021/12/09 00:04:24;;;;;;;22.29;16.30;;;;;;;9.23;67.99;100299.39;464237;111;931108;-75
2021/12/09 00:05:22;;;;;;;18.96;15.63;;;;;;;9.24;67.98;100300.23;463245;111;923187;-75
2021/12/09 00:06:28;;;;;;;22.71;15.93;;;;;;;9.25;67.94;100300.03;463659;112;922628;-75
2021/12/09 00:07:32;;;;;;;18.98;16.18;;;;;;;9.24;67.89;100301.07;464040;112;923045;-74
2021/12/09 00:08:37;;;;;;;18.69;16.34;;;;;;;9.24;67.85;100311.11;463655;113;923046;-75
2021/12/09 00:09:41;;;;;;;20.46;16.72;;;;;;;9.23;67.90;100299.39;464176;111;922492;-73
2021/12/09 00:10:45;;;;;;;17.07;15.03;;;;;;;9.23;67.92;100301.28;464569;113;922654;-76
2021/12/09 00:11:49;;;;;;;17.39;15.53;;;;;;;9.23;67.91;100307.56;464467;112;923097;-73
2021/12/09 00:12:53;;;;;;;16.84;15.14;;;;;;;9.22;67.93;100308.59;463850;111;922718;-74
2021/12/09 00:13:56;;;;;;;21.19;15.65;;;;;;;9.23;67.93;100309.44;464450;111;922677;-74
2021/12/09 00:15:00;;;;;;;18.24;16.01;;;;;;;9.22;67.96;100305.88;464443;111;922498;-75
2021/12/09 00:16:04;;;;;;;21.62;16.42;;;;;;;9.22;67.96;100308.59;464251;112;922578;-75
2021/12/09 00:17:08;;;;;;;21.81;17.21;;;;;;;9.22;67.94;100311.32;463469;111;930596;-74
2021/12/09 00:18:12;;;;;;;17.76;15.96;;;;;;;9.23;67.97;100310.27;463553;111;923187;-74
2021/12/09 00:19:16;;;;;;;18.71;16.39;;;;;;;9.23;67.99;100315.72;464667;111;930791;-75
2021/12/09 00:20:21;;;;;;;18.22;15.93;;;;;;;9.23;67.98;100315.72;463750;111;922896;-74
2021/12/09 00:21:26;;;;;;;18.85;16.38;;;;;;;9.23;67.98;100313.00;464182;111;922627;-74
2021/12/09 00:22:29;;;;;;;21.27;16.30;;;;;;;9.24;67.93;100316.55;464404;112;922730;-75
2021/12/09 00:23:33;;;;;;;23.41;17.04;;;;;;;9.24;67.86;100313.84;464539;112;922866;-75
2021/12/09 00:24:36;;;;;;;25.46;18.01;;;;;;;9.22;67.88;100324.92;464596;112;922741;-74
2021/12/09 00:25:40;;;;;;;17.14;15.39;;;;;;;9.21;67.90;100334.12;464169;112;930521;-74
2021/12/09 00:26:46;;;;;;;18.84;17.01;;;;;;;9.19;67.94;100331.64;464134;112;923270;-74
2021/12/09 00:27:51;;;;;;;17.18;15.10;;;;;;;9.19;67.97;100325.36;455164;114;922573;-75
2021/12/09 00:28:55;;;;;;;18.34;16.09;;;;;;;9.19;68.00;100319.92;464186;112;922710;-74
2021/12/09 00:29:58;;;;;;;18.11;16.23;;;;;;;9.19;67.99;100319.92;463994;113;923211;-73
2021/12/09 00:31:01;;;;;;;17.84;15.44;;;;;;;9.18;68.07;100326.41;463987;112;930718;-74
2021/12/09 00:32:05;;;;;;;20.95;16.03;;;;;;;9.20;68.04;100324.31;464675;114;922674;-74
2021/12/09 00:33:10;;;;;;;17.91;16.15;;;;;;;9.19;68.03;100326.20;455087;114;931609;-74
2021/12/09 00:34:14;;;;;;;20.26;16.47;;;;;;;9.20;68.05;100327.04;463774;112;923089;-74
2021/12/09 00:35:18;;;;;;;18.48;16.27;;;;;;;9.20;68.07;100327.88;455085;114;922836;-74
2021/12/09 00:36:27;;;;;;;17.98;15.36;;;;;;;9.22;68.05;100327.64;464192;111;922615;-75
2021/12/09 00:37:38;;;;;;;21.23;16.77;;;;;;;9.23;68.07;100339.36;463881;112;923188;-75
2021/12/09 00:38:39;;;;;;;21.39;15.87;;;;;;;9.23;68.01;100337.48;463463;112;923112;-76
2021/12/09 00:39:44;;;;;;;18.09;15.79;;;;;;;9.24;67.97;100336.44;463103;111;922765;-74
2021/12/09 00:40:49;;;;;;;17.73;16.00;;;;;;;9.24;67.96;100335.59;464024;113;922589;-74
2021/12/09 00:41:52;;;;;;;17.40;15.69;;;;;;;9.25;67.95;100342.72;464366;112;922799;-74
2021/12/09 00:42:56;;;;;;;22.09;16.27;;;;;;;9.23;67.91;100340.20;463945;111;922788;-75
2021/12/09 00:44:00;;;;;;;18.97;16.99;;;;;;;9.23;67.80;100348.36;464220;111;930551;-74
2021/12/09 00:45:04;;;;;;;20.26;16.86;;;;;;;9.20;67.80;100351.52;464037;111;923218;-74
2021/12/09 00:46:08;;;;;;;20.22;15.41;;;;;;;9.16;67.75;100353.80;464284;112;923008;-74
2021/12/09 00:47:12;;;;;;;19.30;15.42;;;;;;;9.14;67.83;100352.36;464317;112;923055;-75
2021/12/09 00:48:15;;;;;;;18.14;15.31;;;;;;;9.12;67.94;100351.72;464236;111;922450;-75
2021/12/09 00:49:20;;;;;;;16.64;14.77;;;;;;;9.11;68.09;100356.33;464497;111;930792;-74
2021/12/09 00:50:23;;;;;;;16.39;14.64;;;;;;;9.13;68.15;100351.52;464570;111;922740;-76
2021/12/09 00:51:26;;;;;;;16.88;14.76;;;;;;;9.14;68.18;100355.92;464425;111;922626;-75
2021/12/09 00:52:49;;;;;;;17.45;14.25;;;;;;;9.16;68.20;100351.09;463995;112;922588;-74
2021/12/09 00:53:52;;;;;;;16.73;14.28;;;;;;;9.17;68.22;100355.48;464323;114;923134;-76
2021/12/09 00:54:58;;;;;;;17.79;14.33;;;;;;;9.20;68.17;100362.40;463534;111;922939;-73
2021/12/09 00:56:08;;;;;;;16.28;14.36;;;;;;;9.20;68.15;100363.24;461728;111;922612;-76
2021/12/09 00:57:11;;;;;;;16.49;14.50;;;;;;;9.22;68.09;100360.28;464474;112;922782;-74
2021/12/09 00:58:15;;;;;;;15.13;13.56;;;;;;;9.23;68.07;100359.24;464392;111;922936;-73
2021/12/09 00:59:19;;;;;;;14.19;12.89;;;;;;;9.24;68.04;100360.08;463718;112;930482;-75
2021/12/09 01:00:22;;;;;;;13.87;12.68;;;;;;;9.25;68.01;100362.60;463786;112;930384;-75
2021/12/09 01:01:26;;;;;;;14.16;12.57;;;;;;;9.25;67.88;100362.60;463915;112;930330;-75
2021/12/09 01:02:29;;;;;;;13.72;12.44;;;;;;;9.23;67.91;100363.84;464513;111;923013;-74
2021/12/09 01:03:34;;;;;;;13.74;12.37;;;;;;;9.21;67.90;100362.16;454960;114;930603;-76
2021/12/09 01:04:38;;;;;;;13.43;12.17;;;;;;;9.19;67.83;100371.60;455106;114;923060;-75
2021/12/09 01:05:44;;;;;;;13.59;12.16;;;;;;;9.16;67.89;100374.73;463691;111;930340;-74
2021/12/09 01:06:49;;;;;;;13.78;12.50;;;;;;;9.15;67.96;100362.20;464627;111;922601;-75
2021/12/09 01:07:53;;;;;;;13.49;11.92;;;;;;;9.14;68.04;100371.41;463718;112;922674;-74
2021/12/09 01:08:56;;;;;;;14.00;12.87;;;;;;;9.14;68.11;100376.84;464092;111;923109;-74
2021/12/09 01:10:00;;;;;;;13.69;11.97;;;;;;;9.13;68.10;100362.41;464188;112;922756;-76
2021/12/09 01:11:09;;;;;;;13.12;11.81;;;;;;;9.14;68.09;100372.23;464498;114;922607;-75
2021/12/09 01:12:12;;;;;;;13.45;12.24;;;;;;;9.14;68.05;100368.68;464211;111;922937;-74
2021/12/09 01:13:15;;;;;;;14.11;12.19;;;;;;;9.12;68.06;100368.88;464151;111;922656;-75
2021/12/09 01:14:18;;;;;;;12.61;11.53;;;;;;;9.13;68.17;100364.28;464430;112;923075;-75
2021/12/09 01:15:22;;;;;;;13.18;11.51;;;;;;;9.13;68.18;100362.41;464343;113;923170;-77
2021/12/09 01:16:26;;;;;;;13.12;12.00;;;;;;;9.15;68.22;100359.48;464587;111;923036;-75
2021/12/09 01:17:29;;;;;;;14.07;11.88;;;;;;;9.17;68.22;100357.36;454946;114;923249;-75
2021/12/09 01:18:34;;;;;;;13.19;11.94;;;;;;;9.17;68.17;100362.80;464111;112;923140;-74
2021/12/09 01:19:39;;;;;;;12.26;11.18;;;;;;;9.19;68.17;100363.44;464026;112;930428;-75
2021/12/09 01:20:42;;;;;;;13.55;11.86;;;;;;;9.19;68.15;100355.28;464121;111;923153;-75
2021/12/09 01:21:46;;;;;;;13.42;12.18;;;;;;;9.20;68.16;100359.68;463000;112;922711;-75
2021/12/09 01:22:52;;;;;;;13.64;12.37;;;;;;;9.20;68.08;100355.08;463979;111;922633;-75
2021/12/09 01:23:54;;;;;;;13.53;12.24;;;;;;;9.19;68.03;100360.72;463900;111;922996;-74
2021/12/09 01:24:58;;;;;;;14.07;12.71;;;;;;;9.17;67.98;100363.64;464105;112;923172;-74
2021/12/09 01:26:03;;;;;;;13.95;12.69;;;;;;;9.16;68.04;100361.97;464065;111;922606;-75
2021/12/09 01:27:07;;;;;;;14.24;12.13;;;;;;;9.16;68.14;100363.84;464450;112;930353;-74
2021/12/09 01:28:19;;;;;;;13.52;12.26;;;;;;;9.16;68.20;100353.80;463971;111;922604;-75
2021/12/09 01:29:21;;;;;;;14.22;12.91;;;;;;;9.18;68.19;100354.44;463569;112;922666;-74
2021/12/09 01:30:24;;;;;;;13.22;11.92;;;;;;;9.18;68.15;100359.88;463464;111;922989;-75
2021/12/09 01:31:34;;;;;;;14.05;12.25;;;;;;;9.19;68.13;100364.28;464500;112;922612;-75
2021/12/09 01:32:34;;;;;;;13.78;12.29;;;;;;;9.19;68.16;100360.72;463586;112;922729;-74
2021/12/09 01:33:37;;;;;;;13.04;11.77;;;;;;;9.20;68.18;100359.68;463708;112;922900;-75
2021/12/09 01:34:41;;;;;;;13.79;12.37;;;;;;;9.22;68.22;100360.28;463922;112;922883;-75
2021/12/09 01:35:48;;;;;;;15.91;12.63;;;;;;;9.23;68.24;100358.41;463643;111;922934;-73
2021/12/09 01:36:50;;;;;;;13.63;12.42;;;;;;;9.25;68.22;100362.60;464191;111;930453;-74
2021/12/09 01:37:58;;;;;;;14.50;12.81;;;;;;;9.28;68.19;100361.33;463495;112;923011;-74
2021/12/09 01:39:02;;;;;;;13.36;12.13;;;;;;;9.29;68.17;100361.12;463993;113;922489;-74
2021/12/09 01:40:08;;;;;;;14.15;12.24;;;;;;;9.30;68.12;100365.52;463961;111;923336;-74
2021/12/09 01:41:11;;;;;;;14.94;13.26;;;;;;;9.31;68.22;100367.20;463834;111;922564;-74
2021/12/09 01:42:17;;;;;;;15.02;13.22;;;;;;;9.33;68.11;100365.08;455049;115;922811;-74
2021/12/09 01:43:20;;;;;;;14.17;12.61;;;;;;;9.34;68.04;100364.04;463756;111;923170;-75
2021/12/09 01:44:23;;;;;;;19.69;12.86;;;;;;;9.35;68.00;100373.88;464230;111;922622;-75
2021/12/09 01:45:27;;;;;;;15.50;13.97;;;;;;;9.37;67.94;100370.95;464249;111;923058;-75
2021/12/09 01:46:30;;;;;;;14.86;13.37;;;;;;;9.38;67.91;100376.16;463832;112;923077;-75
2021/12/09 01:47:34;;;;;;;14.63;13.21;;;;;;;9.38;67.89;100368.00;463601;112;922617;-75
2021/12/09 01:48:39;;;;;;;14.85;13.39;;;;;;;9.40;67.86;100370.52;464744;113;922963;-76
2021/12/09 01:49:43;;;;;;;15.42;13.08;;;;;;;9.40;67.80;100365.08;464102;113;922647;-74
2021/12/09 01:50:47;;;;;;;14.65;13.04;;;;;;;9.39;67.74;100369.68;464010;112;922665;-75
2021/12/09 01:51:51;;;;;;;14.85;13.37;;;;;;;9.40;67.76;100373.23;464196;112;930520;-75
2021/12/09 01:52:54;;;;;;;14.72;13.16;;;;;;;9.39;67.72;100375.13;463951;111;923418;-75
2021/12/09 01:53:57;;;;;;;15.10;13.60;;;;;;;9.40;67.68;100370.52;455021;114;930411;-75
2021/12/09 01:55:01;;;;;;;15.62;14.14;;;;;;;9.37;67.63;100370.95;463642;112;930477;-75
2021/12/09 01:56:07;;;;;;;15.36;13.12;;;;;;;9.34;67.59;100376.80;464147;112;923005;-75
2021/12/09 01:57:11;;;;;;;15.10;13.21;;;;;;;9.31;67.63;100371.80;464274;112;922568;-74
2021/12/09 01:58:14;;;;;;;15.76;14.40;;;;;;;9.27;67.64;100376.81;464470;112;922993;-76
2021/12/09 01:59:17;;;;;;;15.25;13.61;;;;;;;9.25;67.78;100368.05;464322;111;922614;-75
2021/12/09 02:00:24;;;;;;;14.07;12.74;;;;;;;9.24;67.89;100376.41;462245;113;922716;-75
2021/12/09 02:01:29;;;;;;;14.71;13.28;;;;;;;9.25;67.96;100367.20;461359;114;930394;-73
2021/12/09 02:02:32;;;;;;;15.61;14.02;;;;;;;9.25;67.97;100373.48;460205;112;922762;-74
2021/12/09 02:03:37;;;;;;;15.32;13.89;;;;;;;9.27;68.06;100367.80;457407;113;930833;-73
2021/12/09 02:04:41;;;;;;;15.66;14.11;;;;;;;9.28;68.07;100367.61;460433;114;922857;-73
2021/12/09 02:05:45;;;;;;;14.38;13.11;;;;;;;9.30;68.09;100370.96;461032;114;930363;-74
2021/12/09 02:06:48;;;;;;;15.10;13.69;;;;;;;9.32;68.08;100373.48;460692;114;923558;-73
2021/12/09 02:07:51;;;;;;;16.24;14.63;;;;;;;9.34;68.06;100371.36;461301;113;930522;-73
2021/12/09 02:08:55;;;;;;;15.17;13.59;;;;;;;9.36;68.04;100374.72;461138;113;923297;-72
2021/12/09 02:09:58;;;;;;;16.19;14.47;;;;;;;9.37;68.04;100371.77;461567;114;923027;-75
2021/12/09 02:11:02;;;;;;;15.86;14.41;;;;;;;9.39;68.01;100368.84;460877;113;930948;-74
2021/12/09 02:12:08;;;;;;;15.37;13.84;;;;;;;9.40;68.01;100373.23;460544;114;923108;-73
2021/12/09 02:13:12;;;;;;;16.65;13.47;;;;;;;9.40;68.00;100374.08;460443;114;930307;-73
2021/12/09 02:14:15;;;;;;;15.15;13.56;;;;;;;9.41;67.97;100373.03;461529;114;922988;-73
2021/12/09 02:15:22;;;;;;;16.29;14.31;;;;;;;9.42;68.00;100371.99;460846;113;923366;-74
2021/12/09 02:16:27;;;;;;;16.73;14.52;;;;;;;9.43;67.95;100375.52;460524;113;923135;-72
2021/12/09 02:17:31;;;;;;;16.27;14.43;;;;;;;9.44;67.91;100377.20;460838;114;923002;-73
2021/12/09 02:18:36;;;;;;;16.78;15.10;;;;;;;9.45;67.90;100378.88;461040;114;923115;-74
2021/12/09 02:19:42;;;;;;;17.22;14.69;;;;;;;9.45;67.92;100379.72;461460;113;922949;-74
2021/12/09 02:20:45;;;;;;;16.48;14.86;;;;;;;9.47;67.81;100379.52;460438;113;930665;-74
2021/12/09 02:21:49;;;;;;;20.61;15.72;;;;;;;9.47;67.79;100377.63;461019;113;922959;-74
2021/12/09 02:22:52;;;;;;;18.35;15.37;;;;;;;9.48;67.76;100373.03;461556;114;922759;-74
2021/12/09 02:24:05;;;;;;;17.70;15.30;;;;;;;9.48;67.75;100370.31;460879;114;923285;-73
2021/12/09 02:25:08;;;;;;;20.50;15.28;;;;;;;9.49;67.73;100380.12;460092;112;923306;-73
2021/12/09 02:26:17;;;;;;;18.59;15.16;;;;;;;9.49;67.70;100377.39;459820;113;923653;-75
2021/12/09 02:27:22;;;;;;;17.01;15.01;;;;;;;9.48;67.70;100379.28;460879;113;922711;-74
2021/12/09 02:28:26;;;;;;;16.62;15.09;;;;;;;9.48;67.68;100383.91;461049;113;922656;-74
2021/12/09 02:29:30;;;;;;;16.74;15.02;;;;;;;9.49;67.66;100385.56;460740;113;922672;-73
2021/12/09 02:30:33;;;;;;;18.57;15.29;;;;;;;9.49;67.68;100391.84;461062;113;923271;-73
2021/12/09 02:31:38;;;;;;;17.60;15.74;;;;;;;9.50;67.71;100376.35;461160;114;923164;-76
2021/12/09 02:32:45;;;;;;;16.49;14.77;;;;;;;9.50;67.66;100382.64;460941;113;922697;-74
2021/12/09 02:33:48;;;;;;;19.48;15.85;;;;;;;9.48;67.63;100382.00;461182;113;923475;-73
2021/12/09 02:34:51;;;;;;;17.01;15.45;;;;;;;9.49;67.65;100386.40;460264;112;922776;-73
2021/12/09 02:35:55;;;;;;;17.41;15.48;;;;;;;9.49;67.68;100385.56;461579;114;923073;-76
2021/12/09 02:36:58;;;;;;;17.22;14.78;;;;;;;9.49;67.68;100383.67;461064;112;923512;-74
2021/12/09 02:38:02;;;;;;;18.46;16.62;;;;;;;9.49;67.72;100385.56;460667;113;922630;-73
2021/12/09 02:39:08;;;;;;;19.40;15.67;;;;;;;9.49;67.71;100391.00;461411;114;922826;-73
2021/12/09 02:40:14;;;;;;;18.09;15.41;;;;;;;9.49;67.66;100391.84;461076;112;922971;-73
2021/12/09 02:41:23;;;;;;;18.92;16.24;;;;;;;9.48;67.64;100395.61;460955;113;923240;-72
2021/12/09 02:42:27;;;;;;;17.98;16.09;;;;;;;9.48;67.67;100398.33;460374;113;922676;-74
2021/12/09 02:43:30;;;;;;;19.08;15.59;;;;;;;9.48;67.70;100398.33;461169;112;923145;-73
2021/12/09 02:44:34;;;;;;;18.06;16.42;;;;;;;9.50;67.70;100395.41;461444;114;923101;-76
2021/12/09 02:45:40;;;;;;;19.41;15.92;;;;;;;9.49;67.77;100397.29;461111;113;922511;-74
2021/12/09 02:46:43;;;;;;;19.81;17.71;;;;;;;9.49;67.78;100394.56;450939;116;922974;-74
2021/12/09 02:47:47;;;;;;;20.84;18.64;;;;;;;9.50;67.72;100398.12;443651;118;922780;-73
2021/12/09 02:48:50;;;;;;;20.97;18.34;;;;;;;9.48;67.69;100392.89;451515;115;922621;-75
2021/12/09 02:49:54;;;;;;;21.55;18.22;;;;;;;9.46;67.70;100397.72;442868;117;923521;-73
2021/12/09 02:50:57;;;;;;;20.45;18.42;;;;;;;9.45;67.65;100392.48;442758;117;930599;-75
2021/12/09 02:52:03;;;;;;;20.02;18.17;;;;;;;9.42;67.71;100393.77;451113;116;923284;-73
2021/12/09 02:53:07;;;;;;;19.95;17.59;;;;;;;9.41;67.85;100399.41;444599;119;922960;-75
2021/12/09 02:54:12;;;;;;;20.51;18.53;;;;;;;9.41;67.95;100394.80;443634;117;923280;-74
2021/12/09 02:55:15;;;;;;;20.08;17.42;;;;;;;9.42;67.98;100395.64;443840;117;923302;-74
2021/12/09 02:56:20;;;;;;;21.76;19.13;;;;;;;9.43;67.95;100395.41;443513;119;922977;-73
2021/12/09 02:57:24;;;;;;;20.99;17.82;;;;;;;9.42;67.98;100395.64;435669;119;923402;-71
2021/12/09 02:58:27;;;;;;;23.64;17.90;;;;;;;9.42;68.04;100392.92;453267;114;922827;-76
2021/12/09 02:59:32;;;;;;;21.32;18.54;;;;;;;9.41;68.05;100407.58;460896;113;931157;-73
2021/12/09 03:00:55;;;;;;;22.53;19.85;;;;;;;9.35;68.01;100384.77;461319;112;930614;-74
2021/12/09 03:02:03;;;;;;;22.33;18.42;;;;;;;9.34;67.98;100391.25;464250;112;922593;-74
2021/12/09 03:03:08;;;;;;;19.68;17.39;;;;;;;9.29;68.12;100393.77;464240;111;922641;-73
2021/12/09 03:04:11;;;;;;;23.57;18.86;;;;;;;9.26;68.26;100396.09;464200;111;923421;-74
2021/12/09 03:05:15;;;;;;;22.02;18.83;;;;;;;9.25;68.42;100400.69;463620;112;923048;-73
2021/12/09 03:06:25;;;;;;;20.81;18.74;;;;;;;9.25;68.44;100402.57;463458;112;922808;-74
2021/12/09 03:07:36;;;;;;;23.78;19.31;;;;;;;9.24;68.48;100403.61;464001;111;922823;-74
2021/12/09 03:08:41;;;;;;;23.39;17.53;;;;;;;9.22;68.52;100409.25;464027;112;922714;-73
2021/12/09 03:09:51;;;;;;;23.49;18.91;;;;;;;9.21;68.64;100410.30;464204;114;924213;-74
2021/12/09 03:10:54;;;;;;;27.19;20.43;;;;;;;9.21;68.76;100410.30;463766;111;923582;-73
2021/12/09 03:12:03;;;;;;;27.28;20.09;;;;;;;9.22;68.91;100406.53;463476;112;922656;-73
2021/12/09 03:13:05;;;;;;;27.27;20.73;;;;;;;9.24;68.97;100406.33;454709;116;922732;-73
2021/12/09 03:14:08;;;;;;;32.97;22.56;;;;;;;9.25;69.01;100414.29;464518;114;922986;-73
2021/12/09 03:15:12;;;;;;;35.48;25.22;;;;;;;9.28;69.05;100410.30;463880;112;922648;-73
2021/12/09 03:16:22;;;;;;;34.76;24.37;;;;;;;9.30;69.09;100411.77;463461;111;922728;-74
2021/12/09 03:17:23;;;;;;;31.32;23.92;;;;;;;9.33;69.09;100415.94;463763;112;923047;-72
2021/12/09 03:18:27;;;;;;;28.36;23.07;;;;;;;9.34;69.12;100418.45;455041;115;922921;-74
2021/12/09 03:19:30;;;;;;;28.19;21.81;;;;;;;9.36;69.12;100416.37;463728;113;923125;-75
2021/12/09 03:20:34;;;;;;;24.81;22.19;;;;;;;9.38;69.12;100416.14;463464;111;922606;-74
2021/12/09 03:21:40;;;;;;;29.08;23.31;;;;;;;9.38;69.13;100419.70;463980;112;922639;-74
2021/12/09 03:22:45;;;;;;;38.65;26.66;;;;;;;9.41;69.17;100427.46;464520;111;923149;-73
2021/12/09 03:23:49;;;;;;;46.88;28.65;;;;;;;9.42;69.15;100417.41;463351;112;922996;-73
2021/12/09 03:24:52;;;;;;;44.48;28.59;;;;;;;9.44;69.12;100423.46;464093;111;930480;-75
2021/12/09 03:25:56;;;;;;;48.11;29.20;;;;;;;9.44;69.10;100423.46;464440;113;922606;-72
2021/12/09 03:26:59;;;;;;;60.52;33.91;;;;;;;9.45;69.12;100420.54;463585;112;923010;-74
2021/12/09 03:28:03;;;;;;;64.79;34.29;;;;;;;9.46;69.06;100424.10;463972;111;930801;-72
2021/12/09 03:29:09;;;;;;;57.09;32.07;;;;;;;9.46;69.07;100424.10;463848;111;930049;-73
2021/12/09 03:30:16;;;;;;;58.71;31.36;;;;;;;9.46;69.09;100426.82;464324;112;931127;-74
2021/12/09 03:31:19;;;;;;;53.62;31.24;;;;;;;9.47;69.07;100426.62;464478;113;922972;-72
2021/12/09 03:32:23;;;;;;;46.50;27.82;;;;;;;9.46;69.08;100424.10;463592;111;922691;-75
2021/12/09 03:33:26;;;;;;;43.30;27.67;;;;;;;9.46;69.11;100429.55;462836;111;922585;-74
2021/12/09 03:34:32;;;;;;;45.12;26.77;;;;;;;9.47;69.12;100433.94;464219;111;930155;-72
2021/12/09 03:35:36;;;;;;;36.72;24.63;;;;;;;9.46;69.17;100435.83;464249;112;922576;-73
2021/12/09 03:36:39;;;;;;;34.93;24.20;;;;;;;9.45;69.21;100431.42;454755;114;923208;-75
2021/12/09 03:37:43;;;;;;;35.04;22.11;;;;;;;9.46;69.24;100432.27;464134;112;922673;-72
2021/12/09 03:38:47;;;;;;;28.80;22.41;;;;;;;9.45;69.23;100425.98;463949;112;923100;-75
2021/12/09 03:39:52;;;;;;;28.69;21.09;;;;;;;9.44;69.29;100424.30;463641;111;923192;-73
2021/12/09 03:40:55;;;;;;;27.09;21.16;;;;;;;9.45;69.33;100430.59;463234;111;930545;-74
2021/12/09 03:42:00;;;;;;;32.04;22.28;;;;;;;9.44;69.39;100426.19;464395;111;930450;-73
2021/12/09 03:43:03;;;;;;;31.06;21.43;;;;;;;9.45;69.43;100436.03;464215;111;923051;-73
2021/12/09 03:44:07;;;;;;;28.30;21.47;;;;;;;9.44;69.44;100428.91;464032;112;930403;-73
2021/12/09 03:45:13;;;;;;;30.94;21.66;;;;;;;9.44;69.47;100437.91;464148;112;922593;-73
2021/12/09 03:46:17;;;;;;;23.95;20.22;;;;;;;9.45;69.53;100431.42;463558;111;923082;-72
2021/12/09 03:47:23;;;;;;;27.78;20.12;;;;;;;9.46;69.55;100434.98;464564;112;922639;-74
2021/12/09 03:48:29;;;;;;;27.53;21.32;;;;;;;9.46;69.53;100434.98;463962;111;922589;-74
2021/12/09 03:49:32;;;;;;;27.25;20.74;;;;;;;9.46;69.54;100438.55;464122;111;923310;-74
2021/12/09 03:50:37;;;;;;;27.78;20.91;;;;;;;9.46;69.55;100443.98;464100;111;923295;-73
2021/12/09 03:51:40;;;;;;;30.47;21.22;;;;;;;9.47;69.53;100439.39;454888;114;922663;-73
2021/12/09 03:52:44;;;;;;;23.59;20.61;;;;;;;9.46;69.54;100441.27;445865;117;930470;-72
2021/12/09 03:53:47;;;;;;;29.02;22.43;;;;;;;9.46;69.55;100441.27;454311;113;922683;-75
2021/12/09 03:54:50;;;;;;;31.33;21.72;;;;;;;9.46;69.52;100435.83;463751;111;922957;-74
2021/12/09 03:55:54;;;;;;;33.41;23.26;;;;;;;9.45;69.48;100433.30;462377;112;922693;-74
2021/12/09 03:56:57;;;;;;;30.98;22.43;;;;;;;9.43;69.49;100435.39;462531;113;922686;-74
2021/12/09 03:58:01;;;;;;;33.66;20.96;;;;;;;9.42;69.58;100445.47;455629;114;931048;-73
2021/12/09 03:59:06;;;;;;;35.33;21.80;;;;;;;9.41;69.65;100441.06;464035;113;922748;-72
2021/12/09 04:00:11;;;;;;;25.90;21.72;;;;;;;9.42;69.66;100444.63;464158;111;930406;-74
2021/12/09 04:01:15;;;;;;;22.79;20.41;;;;;;;9.43;69.65;100449.84;463878;112;923016;-74
2021/12/09 04:02:20;;;;;;;30.36;20.93;;;;;;;9.43;69.67;100444.39;463963;113;922693;-73
2021/12/09 04:03:23;;;;;;;35.60;22.02;;;;;;;9.44;69.68;100446.08;463745;111;930494;-75
2021/12/09 04:04:27;;;;;;;29.52;21.43;;;;;;;9.45;69.70;100441.47;464021;112;930511;-74
2021/12/09 04:05:30;;;;;;;26.81;20.49;;;;;;;9.46;69.68;100435.83;464306;111;930462;-74
2021/12/09 04:06:34;;;;;;;23.07;19.29;;;;;;;9.47;69.67;100442.95;463989;111;923341;-73
2021/12/09 04:07:38;;;;;;;30.06;20.99;;;;;;;9.48;69.68;100444.59;463673;111;923360;-74
2021/12/09 04:08:41;;;;;;;31.17;22.39;;;;;;;9.49;69.68;100445.44;464295;111;922959;-73
2021/12/09 04:09:45;;;;;;;26.95;22.24;;;;;;;9.51;69.65;100448.80;463684;112;923098;-74
2021/12/09 04:10:49;;;;;;;23.14;20.78;;;;;;;9.51;69.65;100446.91;464289;112;930447;-73
2021/12/09 04:11:53;;;;;;;34.57;22.55;;;;;;;9.51;69.63;100441.47;463275;111;923129;-74
2021/12/09 04:12:56;;;;;;;30.62;23.05;;;;;;;9.52;69.61;100456.76;463838;112;923012;-74
2021/12/09 04:14:00;;;;;;;34.27;23.22;;;;;;;9.52;69.58;100448.59;464160;111;922908;-74
2021/12/09 04:15:05;;;;;;;36.37;25.11;;;;;;;9.53;69.57;100452.99;464538;111;923218;-72
2021/12/09 04:16:09;;;;;;;48.24;29.88;;;;;;;9.52;69.54;100456.76;463479;111;922709;-74
2021/12/09 04:17:13;;;;;;;52.43;30.89;;;;;;;9.54;69.41;100445.63;464061;111;923668;-76
2021/12/09 04:18:16;;;;;;;51.01;31.06;;;;;;;9.53;69.45;100452.99;464345;111;922592;-72
2021/12/09 04:19:20;;;;;;;59.80;35.05;;;;;;;9.52;69.47;100451.31;464153;112;922553;-72
2021/12/09 04:20:24;;;;;;;65.68;35.75;;;;;;;9.53;69.48;100461.16;463768;112;930758;-72
2021/12/09 04:21:27;;;;;;;65.00;37.60;;;;;;;9.54;69.47;100461.97;464048;111;923109;-73
2021/12/09 04:22:31;;;;;;;54.81;35.64;;;;;;;9.53;69.52;100452.99;464415;112;930368;-75
2021/12/09 04:23:35;;;;;;;66.63;38.09;;;;;;;9.53;69.53;100469.33;463697;112;922991;-77
2021/12/09 04:24:38;;;;;;;69.59;38.62;;;;;;;9.54;69.52;100456.52;463847;111;922571;-72
2021/12/09 04:25:41;;;;;;;70.15;38.30;;;;;;;9.55;69.55;100455.48;463595;111;922537;-75
2021/12/09 04:26:49;;;;;;;62.28;38.00;;;;;;;9.54;69.57;100453.80;464893;111;923032;-75
2021/12/09 04:27:55;;;;;;;65.77;39.28;;;;;;;9.56;69.60;100457.16;463286;111;923123;-75
2021/12/09 04:28:58;;;;;;;62.61;37.03;;;;;;;9.55;69.58;100453.60;463691;111;922990;-75
2021/12/09 04:30:02;;;;;;;64.69;36.58;;;;;;;9.54;69.51;100462.80;464233;112;922608;-74
2021/12/09 04:31:06;;;;;;;67.72;39.45;;;;;;;9.54;69.52;100454.64;464547;112;922752;-72
2021/12/09 04:32:09;;;;;;;70.64;40.57;;;;;;;9.54;69.50;100462.80;464194;111;922838;-74
2021/12/09 04:33:13;;;;;;;69.20;40.06;;;;;;;9.54;69.48;100451.08;464156;112;922601;-74
2021/12/09 04:34:17;;;;;;;78.26;39.52;;;;;;;9.53;69.54;100455.72;464481;112;930696;-75
2021/12/09 04:35:22;;;;;;;65.59;37.25;;;;;;;9.54;69.54;100454.64;464474;112;922663;-75
2021/12/09 04:36:26;;;;;;;58.35;34.31;;;;;;;9.55;69.54;100469.09;454251;114;922939;-74
2021/12/09 04:37:30;;;;;;;62.72;34.44;;;;;;;9.53;69.54;100455.72;464208;111;930676;-73
2021/12/09 04:38:33;;;;;;;52.78;32.50;;;;;;;9.54;69.57;100462.80;464416;113;923454;-73
2021/12/09 04:39:37;;;;;;;57.24;33.48;;;;;;;9.55;69.58;100466.37;454782;115;923050;-73
2021/12/09 04:40:41;;;;;;;53.84;33.75;;;;;;;9.55;69.54;100466.37;464286;113;922939;-74
2021/12/09 04:41:45;;;;;;;56.05;33.33;;;;;;;9.53;69.47;100466.60;464204;111;930672;-72
2021/12/09 04:42:48;;;;;;;54.50;33.76;;;;;;;9.51;69.51;100474.13;463639;112;922650;-74
2021/12/09 04:43:52;;;;;;;53.01;33.66;;;;;;;9.49;69.47;100464.48;464144;112;922622;-75
2021/12/09 04:44:55;;;;;;;55.97;32.84;;;;;;;9.46;69.50;100465.77;463871;112;922654;-73
2021/12/09 04:45:59;;;;;;;55.56;32.56;;;;;;;9.45;69.68;100472.25;463068;111;923453;-73
2021/12/09 04:47:03;;;;;;;51.80;32.16;;;;;;;9.45;69.79;100474.97;464164;112;923762;-73
2021/12/09 04:48:07;;;;;;;51.35;31.74;;;;;;;9.45;69.79;100474.97;464864;113;930521;-72
2021/12/09 04:49:11;;;;;;;50.94;32.25;;;;;;;9.44;69.76;100476.01;464164;111;922665;-73
2021/12/09 04:50:15;;;;;;;46.65;30.05;;;;;;;9.43;69.78;100476.21;463951;111;922477;-76
2021/12/09 04:51:18;;;;;;;48.76;31.48;;;;;;;9.40;69.82;100471.20;463981;111;922466;-73
2021/12/09 04:52:21;;;;;;;46.26;29.57;;;;;;;9.39;69.86;100472.24;464416;112;923016;-75
2021/12/09 04:53:25;;;;;;;47.89;31.50;;;;;;;9.38;69.99;100476.00;464365;112;923508;-74